Time;durP1;ratioP1;P1;durP2;ratioP2;P2;SDS_P1;SDS_P2;PMS_P1;PMS_P2;Temp;Humidity;BMP_temperature;BMP_pressure;BME280_temperature;BME280_humidity;BME280_pressure;Samples;Min_cycle;Max_cycle;Signal;HPM_P1;HPM_P2
2023/09/17 00:00:04;;;;;;;4.07;3.10;;;;;;;16.68;100.00;99362.50;4827574;29;20238;-89
2023/09/17 00:02:35;;;;;;;3.33;3.03;;;;;;;16.58;100.00;99352.47;4842157;29;20210;-88
2023/09/17 00:05:06;;;;;;;3.43;3.13;;;;;;;16.53;100.00;99355.13;4843226;29;20221;-88
2023/09/17 00:07:34;;;;;;;4.07;3.10;;;;;;;16.47;100.00;99349.97;4813123;29;20215;-88
2023/09/17 00:10:05;;;;;;;3.60;3.30;;;;;;;16.41;100.00;99351.00;4843179;29;20197;-90
2023/09/17 00:12:35;;;;;;;3.70;3.40;;;;;;;16.33;100.00;99344.22;4843129;29;20307;-89
2023/09/17 00:15:08;;;;;;;3.50;3.20;;;;;;;16.28;100.00;99344.22;4810773;29;20211;-90
2023/09/17 00:17:37;;;;;;;3.90;3.50;;;;;;;16.18;100.00;99347.69;4828999;29;20189;-90
2023/09/17 00:20:10;;;;;;;3.67;3.37;;;;;;;16.10;100.00;99347.34;4839834;29;20202;-89
2023/09/17 00:22:41;;;;;;;3.80;3.43;;;;;;;16.02;100.00;99345.94;4828396;29;20290;-89
2023/09/17 00:25:09;;;;;;;4.13;3.73;;;;;;;15.95;100.00;99347.28;4827924;29;20300;-89
2023/09/17 00:27:40;;;;;;;3.97;3.50;;;;;;;15.90;100.00;99352.63;4812723;29;20238;-88
2023/09/17 00:30:19;;;;;;;3.97;3.67;;;;;;;15.82;100.00;99348.53;4834650;29;20210;-89
2023/09/17 00:32:48;;;;;;;4.53;3.60;;;;;;;15.71;100.00;99347.66;4814146;29;20202;-88
2023/09/17 00:35:16;;;;;;;3.87;3.57;;;;;;;15.64;100.00;99338.13;4840520;29;20205;-90
2023/09/17 00:37:47;;;;;;;3.90;3.60;;;;;;;15.60;100.00;99337.84;4824822;29;20668;-90
2023/09/17 00:40:15;;;;;;;3.60;3.40;;;;;;;15.60;100.00;99342.44;4839442;29;20327;-89
2023/09/17 00:42:46;;;;;;;3.90;3.50;;;;;;;15.54;100.00;99351.59;4839020;29;20198;-89
2023/09/17 00:45:14;;;;;;;4.20;3.63;;;;;;;15.48;100.00;99341.78;4825448;29;20208;-90
2023/09/17 00:47:48;;;;;;;4.13;3.67;;;;;;;15.42;100.00;99343.63;4810920;29;20217;-89
2023/09/17 00:50:16;;;;;;;3.67;3.47;;;;;;;15.34;100.00;99352.19;4823337;29;20218;-88
2023/09/17 00:52:43;;;;;;;3.83;3.40;;;;;;;15.29;100.00;99341.34;4830216;29;20205;-89
2023/09/17 00:55:13;;;;;;;4.23;3.93;;;;;;;15.17;100.00;99335.28;4836544;29;20213;-89
2023/09/17 00:57:57;;;;;;;4.10;3.80;;;;;;;15.11;100.00;99339.84;4829778;29;20189;-89
2023/09/17 01:00:25;;;;;;;4.37;3.97;;;;;;;15.08;100.00;99336.84;4846072;29;20573;-90
2023/09/17 01:03:02;;;;;;;3.90;3.60;;;;;;;15.03;100.00;99340.28;4829364;29;20213;-89
2023/09/17 01:05:36;;;;;;;4.00;3.70;;;;;;;15.01;100.00;99339.75;4828403;29;20201;-89
2023/09/17 01:08:09;;;;;;;4.50;4.10;;;;;;;14.94;100.00;99339.94;4833970;29;20213;-89
2023/09/17 01:10:41;;;;;;;4.20;3.77;;;;;;;14.88;100.00;99343.66;4825428;29;20682;-88
2023/09/17 01:13:12;;;;;;;4.20;3.60;;;;;;;14.81;100.00;99334.16;4827232;29;20221;-89
2023/09/17 01:15:43;;;;;;;4.10;3.80;;;;;;;14.77;100.00;99341.13;4823462;29;20198;-89
2023/09/17 01:18:15;;;;;;;7.17;4.10;;;;;;;14.71;100.00;99336.72;4824402;29;20700;-89
2023/09/17 01:20:55;;;;;;;4.60;4.20;;;;;;;14.66;100.00;99342.06;4807232;29;20697;-88
2023/09/17 01:23:42;;;;;;;4.50;4.10;;;;;;;14.62;100.00;99340.94;4810757;29;20229;-89
2023/09/17 01:26:18;;;;;;;4.60;4.17;;;;;;;14.59;100.00;99344.16;4817492;29;20216;-89
2023/09/17 01:28:52;;;;;;;4.20;3.90;;;;;;;14.52;100.00;99334.38;4810913;29;20205;-89
2023/09/17 01:31:20;;;;;;;4.13;3.83;;;;;;;14.49;100.00;99339.47;4831445;29;20213;-92
2023/09/17 01:33:57;;;;;;;4.80;4.40;;;;;;;14.43;100.00;99341.28;4840676;29;20464;-89
2023/09/17 01:36:25;;;;;;;4.53;4.13;;;;;;;14.42;100.00;99352.28;4823877;29;20232;-90
2023/09/17 01:39:04;;;;;;;4.27;3.93;;;;;;;14.35;100.00;99354.34;4839101;29;20237;-90
2023/09/17 01:41:35;;;;;;;4.70;4.40;;;;;;;14.29;100.00;99342.69;4828056;29;20592;-88
2023/09/17 01:44:06;;;;;;;4.60;4.20;;;;;;;14.27;100.00;99344.84;4834220;29;20316;-89
2023/09/17 01:46:38;;;;;;;5.13;4.67;;;;;;;14.22;100.00;99338.56;4841252;29;20228;-89
2023/09/17 01:49:14;;;;;;;4.77;4.47;;;;;;;14.20;100.00;99340.66;4807438;29;20266;-90
2023/09/17 01:51:46;;;;;;;5.07;4.50;;;;;;;14.16;100.00;99347.63;4827402;29;20220;-89
2023/09/17 01:54:17;;;;;;;4.60;4.20;;;;;;;14.09;100.00;99343.22;4825148;29;20213;-90
2023/09/17 01:56:52;;;;;;;4.30;4.00;;;;;;;14.08;100.00;99349.72;4823621;29;20260;-89
2023/09/17 01:59:20;;;;;;;4.90;4.43;;;;;;;14.03;100.00;99344.25;4823983;29;20239;-89
2023/09/17 02:01:50;;;;;;;4.33;4.03;;;;;;;14.03;100.00;99340.72;4810293;29;20588;-89
2023/09/17 02:04:18;;;;;;;4.80;4.50;;;;;;;13.96;100.00;99337.38;4825724;29;20228;-89
2023/09/17 02:06:47;;;;;;;5.00;4.60;;;;;;;13.94;100.00;99339.53;4851397;29;20220;-89
2023/09/17 02:09:16;;;;;;;5.10;4.70;;;;;;;13.92;100.00;99342.47;4812075;29;20671;-89
2023/09/17 02:11:48;;;;;;;5.37;4.97;;;;;;;13.88;100.00;99343.22;4825920;29;20209;-89
2023/09/17 02:14:22;;;;;;;5.43;4.93;;;;;;;13.86;100.00;99334.56;4812974;29;20213;-88
2023/09/17 02:16:51;;;;;;;6.07;5.47;;;;;;;13.84;100.00;99336.69;4818933;29;20229;-90
2023/09/17 02:19:28;;;;;;;5.30;4.90;;;;;;;13.78;100.00;99340.38;4782114;29;20216;-89
2023/09/17 02:21:56;;;;;;;5.50;5.10;;;;;;;13.73;100.00;99338.41;4834042;29;20213;-89
2023/09/17 02:24:23;;;;;;;4.83;4.53;;;;;;;13.74;100.00;99350.81;4809924;29;20224;-89
2023/09/17 02:26:52;;;;;;;6.80;4.80;;;;;;;13.70;100.00;99343.47;4825917;29;20205;-89
2023/09/17 02:29:40;;;;;;;5.23;4.83;;;;;;;13.66;100.00;99344.00;4840417;29;20197;-90
2023/09/17 02:32:09;;;;;;;4.93;4.53;;;;;;;13.64;100.00;99340.72;4820721;29;20217;-89
2023/09/17 02:34:40;;;;;;;5.23;4.77;;;;;;;13.61;100.00;99343.91;4838118;29;20193;-88
2023/09/17 02:37:08;;;;;;;5.40;5.00;;;;;;;13.57;100.00;99342.78;4841320;29;20762;-88
2023/09/17 02:39:38;;;;;;;5.57;5.07;;;;;;;13.55;100.00;99347.56;4827664;29;20241;-89
2023/09/17 02:42:06;;;;;;;5.33;4.93;;;;;;;13.52;100.00;99353.47;4844308;29;20197;-89
2023/09/17 02:44:34;;;;;;;5.13;4.73;;;;;;;13.48;100.00;99359.56;4819204;29;20246;-88
2023/09/17 02:47:03;;;;;;;5.40;5.00;;;;;;;13.42;100.00;99357.84;4826754;29;20206;-88
2023/09/17 02:49:35;;;;;;;5.53;5.10;;;;;;;13.40;100.00;99360.78;4839104;29;20240;-89
2023/09/17 02:52:06;;;;;;;5.63;5.23;;;;;;;13.38;100.00;99359.41;4841634;29;20300;-87
2023/09/17 02:54:41;;;;;;;5.83;5.23;;;;;;;13.37;100.00;99355.06;4821450;29;20202;-88
2023/09/17 02:57:13;;;;;;;5.83;5.43;;;;;;;13.37;100.00;99353.19;4830061;29;20223;-87
2023/09/17 02:59:44;;;;;;;5.90;5.50;;;;;;;13.35;100.00;99349.09;4823231;29;20305;-88
2023/09/17 05:43:38;;;;;;;8.23;7.63;;;;;;;14.34;100.00;99466.72;5216446;23;20277;-88
2023/09/17 05:46:06;;;;;;;7.60;7.00;;;;;;;14.48;100.00;99469.91;4819780;29;20324;-87
2023/09/17 05:48:39;;;;;;;8.00;7.30;;;;;;;14.61;100.00;99474.94;4832571;29;20301;-87
2023/09/17 05:51:08;;;;;;;7.67;7.07;;;;;;;14.73;100.00;99478.34;4828115;29;20208;-90
2023/09/17 05:53:37;;;;;;;7.93;7.33;;;;;;;14.82;100.00;99478.72;4832486;29;20200;-90
2023/09/17 05:56:08;;;;;;;7.47;6.87;;;;;;;14.91;100.00;99482.63;4844698;29;20201;-87
2023/09/17 05:58:40;;;;;;;7.27;6.77;;;;;;;15.04;100.00;99482.22;4828714;29;20302;-87
2023/09/17 06:01:09;;;;;;;7.47;6.87;;;;;;;15.16;100.00;99474.00;4856655;29;20223;-85
2023/09/17 06:03:36;;;;;;;7.60;6.90;;;;;;;15.28;100.00;99493.56;4854028;29;20697;-88
2023/09/17 06:06:04;;;;;;;7.63;6.87;;;;;;;15.44;100.00;99496.16;4827850;29;20209;-88
2023/09/17 06:08:33;;;;;;;7.37;6.87;;;;;;;15.56;100.00;99492.53;4826184;29;20236;-88
2023/09/17 06:11:01;;;;;;;7.30;6.80;;;;;;;15.68;100.00;99491.28;4839125;29;20302;-90
2023/09/17 06:13:30;;;;;;;7.50;6.90;;;;;;;15.81;100.00;99488.19;4855788;29;20197;-87
2023/09/17 06:15:57;;;;;;;7.00;6.50;;;;;;;15.96;100.00;99498.28;4852070;29;20192;-87
2023/09/17 06:18:28;;;;;;;7.17;6.67;;;;;;;16.09;100.00;99499.78;4857991;29;20208;-88
2023/09/17 06:20:56;;;;;;;7.07;6.57;;;;;;;16.19;100.00;99505.25;4846115;29;20210;-87
2023/09/17 06:23:27;;;;;;;7.17;6.57;;;;;;;16.32;100.00;99498.59;4844688;29;20209;-87
2023/09/17 06:25:55;;;;;;;7.30;6.70;;;;;;;16.38;100.00;99495.63;4844911;29;20280;-89
2023/09/17 06:28:22;;;;;;;7.17;6.60;;;;;;;16.44;100.00;99497.31;4847593;29;20209;-87
2023/09/17 06:30:50;;;;;;;7.23;6.53;;;;;;;16.51;100.00;99508.72;4862534;29;20246;-87
2023/09/17 06:33:18;;;;;;;8.53;7.50;;;;;;;16.62;100.00;99505.03;4842058;29;20240;-86
2023/09/17 06:35:47;;;;;;;7.80;7.20;;;;;;;16.72;100.00;99502.38;4842013;29;20209;-86
2023/09/17 06:38:15;;;;;;;7.57;6.97;;;;;;;16.78;100.00;99505.94;4839183;29;20221;-87
2023/09/17 06:40:43;;;;;;;7.90;7.20;;;;;;;16.81;100.00;99502.69;4858723;29;20228;-88
2023/09/17 06:43:13;;;;;;;7.87;6.97;;;;;;;16.85;100.00;99508.38;4842136;29;20264;-87
2023/09/17 06:45:41;;;;;;;7.50;7.00;;;;;;;16.95;100.00;99498.41;4853599;29;20236;-87
2023/09/17 06:48:13;;;;;;;7.07;6.47;;;;;;;17.05;100.00;99509.28;4842489;29;20213;-87
2023/09/17 06:50:40;;;;;;;7.40;6.77;;;;;;;17.21;100.00;99512.06;4845272;29;20229;-87
2023/09/17 06:53:07;;;;;;;7.50;6.90;;;;;;;17.26;100.00;99512.91;4854909;29;20229;-87
2023/09/17 06:55:35;;;;;;;6.73;6.13;;;;;;;17.35;100.00;99516.72;4855525;29;20216;-87
2023/09/17 06:58:03;;;;;;;7.37;6.57;;;;;;;17.43;100.00;99513.50;4851401;29;20257;-87
2023/09/17 07:00:32;;;;;;;6.77;6.17;;;;;;;17.50;100.00;99511.31;4832904;29;20212;-88
2023/09/17 07:03:04;;;;;;;7.03;6.53;;;;;;;17.66;100.00;99506.78;4831941;29;20223;-87
2023/09/17 07:05:33;;;;;;;7.07;6.40;;;;;;;17.79;100.00;99505.44;4846633;29;20252;-87
2023/09/17 07:08:03;;;;;;;7.07;6.57;;;;;;;17.88;100.00;99501.94;4822031;29;20205;-87
2023/09/17 07:10:32;;;;;;;6.87;6.37;;;;;;;18.03;100.00;99511.97;4846472;29;20279;-87
2023/09/17 07:13:07;;;;;;;6.53;5.93;;;;;;;18.10;100.00;99512.53;4860417;29;20212;-88
2023/09/17 07:15:36;;;;;;;6.57;6.00;;;;;;;18.21;100.00;99510.59;4847652;29;20210;-88
2023/09/17 07:18:12;;;;;;;6.30;5.80;;;;;;;18.26;100.00;99508.72;4863835;29;20194;-87
2023/09/17 07:20:42;;;;;;;6.73;6.23;;;;;;;18.11;100.00;99516.03;4858129;29;20226;-87
2023/09/17 07:23:09;;;;;;;6.40;5.80;;;;;;;18.24;100.00;99516.31;4862305;29;20673;-88
2023/09/17 07:25:37;;;;;;;6.53;5.90;;;;;;;18.47;100.00;99523.06;4855308;29;20253;-88
2023/09/17 07:28:07;;;;;;;6.07;5.57;;;;;;;18.60;100.00;99519.81;4831694;29;20207;-86
2023/09/17 07:30:36;;;;;;;6.63;6.13;;;;;;;18.56;100.00;99518.75;4840036;29;20287;-86
2023/09/17 07:33:04;;;;;;;7.00;6.40;;;;;;;18.51;100.00;99523.34;4855257;29;20211;-86
2023/09/17 07:35:32;;;;;;;7.03;6.43;;;;;;;18.51;100.00;99518.72;4861278;29;20198;-87
2023/09/17 07:38:00;;;;;;;6.37;5.77;;;;;;;18.64;100.00;99529.03;4828155;29;20204;-87
2023/09/17 07:40:28;;;;;;;7.07;6.40;;;;;;;18.78;100.00;99524.66;4856742;29;20212;-86
2023/09/17 07:43:01;;;;;;;6.07;5.57;;;;;;;18.99;100.00;99530.81;4852370;29;20283;-86
2023/09/17 07:45:35;;;;;;;6.50;5.90;;;;;;;19.14;100.00;99529.97;4856572;29;20238;-87
2023/09/17 07:48:23;;;;;;;6.57;5.50;;;;;;;19.35;100.00;99531.50;4854069;29;20210;-87
2023/09/17 07:50:58;;;;;;;6.17;5.67;;;;;;;19.54;100.00;99527.09;4849733;29;20346;-86
2023/09/17 07:53:28;;;;;;;5.93;5.50;;;;;;;19.69;100.00;99528.91;4850058;29;20204;-87
2023/09/17 07:56:06;;;;;;;6.50;5.90;;;;;;;19.78;100.00;99530.72;4851880;29;20215;-87
2023/09/17 07:58:34;;;;;;;7.03;5.80;;;;;;;19.93;100.00;99531.72;4817722;29;20205;-87
2023/09/17 08:01:05;;;;;;;5.93;5.50;;;;;;;19.99;100.00;99533.31;4826985;29;20684;-87
2023/09/17 08:03:37;;;;;;;6.27;5.80;;;;;;;20.05;100.00;99538.44;4849709;29;20219;-87
2023/09/17 08:06:05;;;;;;;6.27;5.70;;;;;;;20.14;100.00;99533.19;4852966;29;20221;-88
2023/09/17 08:08:42;;;;;;;6.40;5.60;;;;;;;20.21;100.00;99537.22;4853784;29;20200;-87
2023/09/17 08:11:09;;;;;;;5.60;5.20;;;;;;;20.29;100.00;99535.81;4839252;29;20215;-87
2023/09/17 08:13:38;;;;;;;6.20;5.60;;;;;;;20.36;100.00;99539.03;4855830;29;20209;-86
2023/09/17 08:16:06;;;;;;;6.83;6.27;;;;;;;20.33;100.00;99533.34;4854675;29;20208;-87
2023/09/17 08:18:34;;;;;;;6.17;5.67;;;;;;;20.23;100.00;99543.19;4838852;29;20211;-87
2023/09/17 08:21:05;;;;;;;5.90;5.43;;;;;;;20.30;100.00;99545.59;4851662;29;20330;-86
2023/09/17 08:23:36;;;;;;;6.00;5.50;;;;;;;20.45;100.00;99545.47;4844373;29;20215;-88
2023/09/17 08:26:04;;;;;;;6.27;5.80;;;;;;;20.49;100.00;99538.34;4845014;29;20239;-86
2023/09/17 08:28:33;;;;;;;5.85;5.38;;;;;;;20.59;100.00;99540.97;4860871;29;20211;-87
2023/09/17 08:31:03;;;;;;;7.03;6.00;;;;;;;20.60;100.00;99541.78;4844212;29;20209;-86
2023/09/17 08:33:38;;;;;;;6.35;5.78;;;;;;;20.65;100.00;99531.66;4850058;29;20211;-87
2023/09/17 08:36:06;;;;;;;5.80;5.40;;;;;;;20.80;100.00;99538.88;4837669;29;20208;-86
2023/09/17 08:38:33;;;;;;;5.68;5.25;;;;;;;20.80;100.00;99543.50;4845691;29;20217;-85
2023/09/17 08:41:01;;;;;;;5.90;5.40;;;;;;;20.95;100.00;99541.41;4845580;29;20200;-86
2023/09/17 08:43:31;;;;;;;5.75;5.35;;;;;;;21.14;100.00;99532.53;4850918;29;20226;-86
2023/09/17 08:46:01;;;;;;;6.07;5.57;;;;;;;21.23;100.00;99542.47;4849307;29;20252;-87
2023/09/17 08:48:29;;;;;;;5.80;5.40;;;;;;;21.30;100.00;99536.69;4840753;29;20333;-84
2023/09/17 08:50:59;;;;;;;6.30;5.70;;;;;;;21.35;100.00;99525.72;4852250;29;20210;-85
2023/09/17 08:53:35;;;;;;;6.00;5.45;;;;;;;21.33;100.00;99522.47;4853879;29;20208;-87
2023/09/17 08:56:13;;;;;;;6.00;5.60;;;;;;;21.51;100.00;99527.94;4824493;29;20220;-86
2023/09/17 08:58:51;;;;;;;5.40;5.00;;;;;;;21.62;100.00;99530.50;4848143;29;20674;-87
2023/09/17 09:01:24;;;;;;;6.07;5.38;;;;;;;21.71;100.00;99529.56;4848217;29;20243;-86
2023/09/17 09:03:57;;;;;;;5.75;5.35;;;;;;;21.84;100.00;99536.19;4852525;29;20199;-85
2023/09/17 09:06:28;;;;;;;5.80;5.30;;;;;;;21.94;100.00;99542.34;4841616;29;20232;-85
2023/09/17 09:08:58;;;;;;;5.47;4.97;;;;;;;22.00;100.00;99540.34;4837348;29;20254;-87
2023/09/17 09:11:27;;;;;;;5.25;4.43;;;;;;;22.05;100.00;99544.91;4850418;29;20205;-85
2023/09/17 09:13:58;;;;;;;5.57;5.07;;;;;;;22.12;100.00;99529.78;4851163;29;20322;-85
2023/09/17 09:16:27;;;;;;;4.88;4.47;;;;;;;22.22;100.00;99532.34;4852194;29;20292;-85
2023/09/17 09:18:55;;;;;;;5.22;4.82;;;;;;;22.26;100.00;99527.91;4848712;29;20279;-86
2023/09/17 09:21:23;;;;;;;5.30;4.80;;;;;;;22.43;100.00;99532.00;4816518;29;20320;-86
2023/09/17 09:23:53;;;;;;;5.15;4.65;;;;;;;22.59;100.00;99528.69;4832932;29;20287;-86
2023/09/17 09:26:37;;;;;;;4.90;4.50;;;;;;;22.73;100.00;99526.00;4830380;29;20212;-85
2023/09/17 09:29:06;;;;;;;5.20;4.40;;;;;;;22.82;100.00;99525.00;4842474;29;20205;-86
2023/09/17 09:31:34;;;;;;;5.22;4.78;;;;;;;22.97;100.00;99518.44;4856185;29;20218;-84
2023/09/17 09:34:04;;;;;;;6.18;4.65;;;;;;;23.13;100.00;99519.75;4868959;29;20220;-87
2023/09/17 09:36:33;;;;;;;4.95;4.50;;;;;;;23.20;100.00;99519.34;4840901;29;20697;-86
2023/09/17 09:39:04;;;;;;;4.90;4.50;;;;;;;23.32;100.00;99510.63;4834223;29;20203;-85
2023/09/17 09:41:33;;;;;;;5.10;4.70;;;;;;;23.46;100.00;99509.53;4851594;29;20218;-85
2023/09/17 09:44:07;;;;;;;5.20;4.57;;;;;;;23.55;100.00;99509.59;4839431;29;20216;-84
2023/09/17 09:46:36;;;;;;;4.65;4.20;;;;;;;23.59;100.00;99507.88;4853194;29;20247;-84
2023/09/17 09:49:06;;;;;;;4.53;4.18;;;;;;;23.65;100.00;99509.38;4847544;29;20226;-85
2023/09/17 09:51:35;;;;;;;4.85;4.45;;;;;;;23.77;100.00;99515.09;4848541;29;20294;-84
2023/09/17 09:54:05;;;;;;;4.50;4.20;;;;;;;23.92;100.00;99517.50;4865621;29;20204;-85
2023/09/17 09:56:35;;;;;;;5.50;4.60;;;;;;;24.02;100.00;99517.25;4851435;29;20242;-85
2023/09/17 09:59:05;;;;;;;4.60;4.28;;;;;;;24.11;100.00;99511.84;4848328;29;20347;-83
2023/09/17 10:01:36;;;;;;;5.85;4.63;;;;;;;24.32;100.00;99512.97;4851532;29;20210;-85
2023/09/17 10:04:11;;;;;;;4.82;4.10;;;;;;;24.43;100.00;99502.56;4835487;29;20212;-86
2023/09/17 10:06:39;;;;;;;4.70;4.30;;;;;;;24.53;100.00;99505.03;4857878;29;20238;-84
2023/09/17 10:09:10;;;;;;;5.03;4.63;;;;;;;24.60;100.00;99499.91;4859248;29;20281;-85
2023/09/17 10:11:40;;;;;;;4.70;4.40;;;;;;;24.75;100.00;99495.94;4843044;29;20196;-84
2023/09/17 10:14:09;;;;;;;4.80;4.50;;;;;;;24.85;100.00;99498.41;4850229;29;20698;-83
2023/09/17 10:16:36;;;;;;;5.47;4.07;;;;;;;24.75;100.00;99494.00;4848921;29;20205;-87
2023/09/17 10:19:04;;;;;;;4.85;4.45;;;;;;;24.79;100.00;99486.78;4851460;29;20288;-86
2023/09/17 10:21:37;;;;;;;5.03;4.57;;;;;;;24.98;100.00;99483.81;4849011;29;20303;-86
2023/09/17 10:24:08;;;;;;;5.18;4.43;;;;;;;25.12;100.00;99489.97;4855779;29;20220;-87
2023/09/17 10:26:42;;;;;;;4.15;3.85;;;;;;;25.16;100.00;99482.72;4820842;29;20213;-86
2023/09/17 10:29:11;;;;;;;5.20;4.35;;;;;;;25.13;100.00;99479.81;4835272;29;20212;-87
2023/09/17 10:31:44;;;;;;;4.43;4.13;;;;;;;25.04;100.00;99481.72;4835448;29;20227;-87
2023/09/17 10:34:13;;;;;;;5.20;4.45;;;;;;;25.10;100.00;99481.28;4847450;29;20208;-86
2023/09/17 10:36:45;;;;;;;4.78;4.40;;;;;;;25.16;100.00;99479.97;4835086;29;20227;-86
2023/09/17 10:39:17;;;;;;;4.70;4.35;;;;;;;25.38;100.00;99481.81;4831373;29;20221;-86
2023/09/17 10:41:49;;;;;;;4.32;4.03;;;;;;;25.52;100.00;99476.19;4834901;29;20224;-87
2023/09/17 10:44:20;;;;;;;4.70;4.40;;;;;;;25.66;100.00;99485.09;4829990;29;20209;-86
2023/09/17 10:46:47;;;;;;;5.43;4.40;;;;;;;25.76;100.00;99473.78;4830846;29;20616;-86
2023/09/17 10:49:18;;;;;;;4.18;3.88;;;;;;;25.91;100.00;99478.78;4831969;29;20260;-86
2023/09/17 10:51:54;;;;;;;5.00;4.60;;;;;;;25.99;100.00;99480.69;4831655;29;20215;-87
2023/09/17 10:54:22;;;;;;;4.78;4.43;;;;;;;26.07;100.00;99470.84;4843318;29;20666;-87
2023/09/17 10:56:50;;;;;;;4.65;4.20;;;;;;;26.38;100.00;99476.94;4835015;29;20205;-86
2023/09/17 10:59:18;;;;;;;4.97;4.40;;;;;;;26.54;100.00;99472.53;4850901;29;20760;-86
2023/09/17 11:01:47;;;;;;;5.10;4.60;;;;;;;26.68;100.00;99475.06;4822349;29;20318;-86
2023/09/17 11:04:19;;;;;;;4.45;4.15;;;;;;;26.84;100.00;99478.06;4833385;29;20212;-86
2023/09/17 11:07:00;;;;;;;4.88;4.50;;;;;;;26.90;100.00;99469.34;4851862;29;20225;-86
2023/09/17 11:09:33;;;;;;;4.95;4.55;;;;;;;27.10;100.00;99468.59;4844287;29;20216;-86
2023/09/17 11:12:02;;;;;;;4.30;3.95;;;;;;;27.14;100.00;99471.47;4846476;29;20205;-86
2023/09/17 11:14:30;;;;;;;4.50;4.13;;;;;;;27.24;100.00;99465.59;4850334;29;20208;-86
2023/09/17 11:16:57;;;;;;;4.97;4.47;;;;;;;27.37;100.00;99470.03;4828025;29;20257;-87
2023/09/17 11:19:25;;;;;;;6.32;4.45;;;;;;;27.42;100.00;99467.06;4835719;29;20233;-86
2023/09/17 11:22:05;;;;;;;4.68;4.38;;;;;;;27.35;100.00;99464.03;4837604;29;20232;-86
2023/09/17 11:24:36;;;;;;;4.70;4.40;;;;;;;27.31;100.00;99463.09;4851755;29;20227;-86
2023/09/17 11:27:12;;;;;;;4.10;3.90;;;;;;;27.35;100.00;99458.53;4845280;29;20717;-86
2023/09/17 11:29:41;;;;;;;4.85;4.45;;;;;;;27.44;100.00;99453.78;4859461;29;20215;-86
2023/09/17 11:32:09;;;;;;;4.30;4.00;;;;;;;27.63;100.00;99463.53;4816147;29;20204;-86
2023/09/17 11:34:42;;;;;;;4.35;4.05;;;;;;;27.77;100.00;99455.81;4835365;29;20624;-86
2023/09/17 11:37:12;;;;;;;4.15;3.85;;;;;;;27.76;100.00;99460.53;4824044;29;20204;-86
2023/09/17 11:39:50;;;;;;;4.35;4.05;;;;;;;27.82;100.00;99450.91;4839775;29;20205;-86
2023/09/17 11:42:26;;;;;;;3.78;3.58;;;;;;;27.82;100.00;99450.09;4840068;29;20204;-87
2023/09/17 11:44:56;;;;;;;4.95;3.60;;;;;;;27.82;100.00;99448.16;4837187;29;20279;-87
2023/09/17 11:47:30;;;;;;;4.00;3.70;;;;;;;27.94;100.00;99450.16;4830541;29;20242;-87
2023/09/17 11:49:58;;;;;;;3.90;3.60;;;;;;;27.87;100.00;99445.19;4820808;29;20380;-87
2023/09/17 11:52:28;;;;;;;3.22;3.03;;;;;;;27.82;100.00;99436.34;4850381;29;20268;-87
2023/09/17 11:55:03;;;;;;;3.55;3.25;;;;;;;27.93;100.00;99429.28;4852742;29;20211;-86
2023/09/17 11:57:33;;;;;;;3.50;3.20;;;;;;;27.75;100.00;99428.63;4870147;29;20209;-86
2023/09/17 12:00:09;;;;;;;3.40;3.20;;;;;;;27.88;100.00;99427.53;4853143;29;20307;-86
2023/09/17 12:02:37;;;;;;;3.78;3.45;;;;;;;28.05;100.00;99421.03;4845896;29;20235;-86
2023/09/17 12:05:09;;;;;;;3.40;3.20;;;;;;;28.24;100.00;99426.03;4855388;29;20670;-86
2023/09/17 12:07:38;;;;;;;3.33;3.13;;;;;;;28.48;97.46;99428.03;4858067;29;20203;-85
2023/09/17 12:10:26;;;;;;;3.65;3.40;;;;;;;28.60;94.95;99431.63;4859408;29;20331;-86
2023/09/17 12:12:54;;;;;;;3.78;3.47;;;;;;;28.76;94.54;99429.81;4857844;29;20201;-87
2023/09/17 12:15:24;;;;;;;3.40;3.10;;;;;;;28.83;92.42;99421.78;4840995;29;20205;-86
2023/09/17 12:17:52;;;;;;;3.20;3.00;;;;;;;28.82;90.91;99414.66;4840565;29;20208;-85
2023/09/17 12:21:07;;;;;;;3.42;3.13;;;;;;;28.98;89.74;99408.41;4846414;29;20662;-86
2023/09/17 12:24:01;;;;;;;3.40;3.20;;;;;;;29.10;87.16;99405.66;4833425;29;20217;-87
2023/09/17 12:27:25;;;;;;;3.28;3.08;;;;;;;29.18;86.54;99413.00;4846441;29;20789;-86
2023/09/17 12:29:52;;;;;;;3.38;2.60;;;;;;;29.08;84.47;99407.94;4854976;29;20229;-86
2023/09/17 12:32:22;;;;;;;3.05;2.85;;;;;;;29.13;85.35;99404.94;4843437;29;20269;-86
2023/09/17 12:34:54;;;;;;;3.30;3.10;;;;;;;29.21;83.58;99409.53;4834752;29;20267;-86
2023/09/17 12:37:23;;;;;;;3.17;2.97;;;;;;;29.25;83.68;99400.22;4852570;29;20669;-84
2023/09/17 12:39:52;;;;;;;3.10;2.90;;;;;;;29.28;82.23;99398.72;4851727;29;20208;-88
2023/09/17 12:42:21;;;;;;;3.10;2.90;;;;;;;29.31;82.26;99401.59;4840473;29;20296;-86
2023/09/17 12:44:50;;;;;;;3.08;2.88;;;;;;;29.31;80.68;99401.59;4853493;29;20197;-87
2023/09/17 12:47:19;;;;;;;3.05;2.85;;;;;;;29.20;81.17;99400.47;4835311;29;20221;-86
2023/09/17 12:49:48;;;;;;;3.13;2.90;;;;;;;29.14;80.71;99403.81;4838987;29;20309;-86
2023/09/17 12:52:19;;;;;;;3.30;3.00;;;;;;;29.26;81.08;99412.03;4851376;29;20244;-86
2023/09/17 12:54:49;;;;;;;3.35;3.05;;;;;;;29.30;78.81;99408.25;4836297;29;20201;-86
2023/09/17 12:57:16;;;;;;;3.50;3.20;;;;;;;29.28;78.71;99407.81;4851276;29;20209;-86
2023/09/17 12:59:52;;;;;;;3.33;3.05;;;;;;;29.44;79.46;99402.41;4850292;29;20209;-86
2023/09/17 13:02:30;;;;;;;3.20;3.00;;;;;;;29.43;78.62;99408.25;4853951;29;20208;-86
2023/09/17 13:04:58;;;;;;;3.08;2.88;;;;;;;29.37;76.53;99404.13;4836629;29;20212;-86
2023/09/17 13:07:27;;;;;;;2.95;2.65;;;;;;;29.37;76.01;99404.94;4835133;29;20328;-86
2023/09/17 13:09:59;;;;;;;2.90;2.70;;;;;;;29.39;74.15;99393.56;4841254;29;20213;-86
2023/09/17 13:12:27;;;;;;;3.10;2.90;;;;;;;29.41;75.69;99394.00;4835886;29;20256;-86
2023/09/17 13:14:58;;;;;;;2.90;2.70;;;;;;;29.42;76.03;99395.59;4831419;29;20205;-87
2023/09/17 13:17:27;;;;;;;3.65;3.20;;;;;;;29.47;75.50;99392.59;4834800;29;20201;-86
2023/09/17 13:19:56;;;;;;;2.80;2.60;;;;;;;29.31;75.70;99384.25;4850532;29;20209;-86
2023/09/17 13:22:26;;;;;;;2.80;2.60;;;;;;;29.34;75.98;99377.25;4835562;29;20215;-86
2023/09/17 13:24:56;;;;;;;3.08;2.88;;;;;;;29.37;75.01;99373.78;4852333;29;20697;-86
2023/09/17 13:27:29;;;;;;;3.13;2.90;;;;;;;29.39;75.50;99371.47;4843566;29;20228;-87
2023/09/17 13:29:58;;;;;;;3.00;2.80;;;;;;;29.51;75.49;99374.19;4869703;29;20216;-86
2023/09/17 13:32:26;;;;;;;3.40;3.20;;;;;;;29.60;74.85;99377.59;4836819;29;20201;-86
2023/09/17 13:34:57;;;;;;;3.03;2.83;;;;;;;29.57;73.49;99372.78;4853207;29;20201;-86
2023/09/17 13:37:24;;;;;;;3.58;3.28;;;;;;;29.53;73.97;99360.84;4838628;29;20212;-86
2023/09/17 13:39:52;;;;;;;5.80;5.30;;;;;;;29.63;73.18;99352.84;4838241;29;20744;-86
2023/09/17 13:42:21;;;;;;;3.45;3.25;;;;;;;29.74;73.57;99351.19;4834528;29;20240;-86
2023/09/17 13:44:56;;;;;;;2.88;2.67;;;;;;;29.67;72.91;99350.19;4846764;29;20220;-86
2023/09/17 13:47:27;;;;;;;2.88;2.40;;;;;;;29.64;71.63;99343.41;4850305;29;20224;-86
2023/09/17 13:49:58;;;;;;;2.72;2.38;;;;;;;29.60;69.93;99353.56;4845369;29;20221;-86
2023/09/17 13:52:27;;;;;;;2.65;2.50;;;;;;;29.60;69.60;99341.69;4827607;29;20208;-86
2023/09/17 13:54:58;;;;;;;4.18;2.75;;;;;;;29.60;70.50;99344.47;4848150;29;20201;-86
2023/09/17 13:57:26;;;;;;;2.85;2.65;;;;;;;29.66;70.44;99341.09;4847113;29;20280;-86
2023/09/17 13:59:53;;;;;;;3.17;2.90;;;;;;;29.75;71.96;99335.41;4848787;29;20203;-86
2023/09/17 14:02:21;;;;;;;2.70;2.50;;;;;;;29.75;72.10;99335.41;4837539;29;20209;-86
2023/09/17 14:04:48;;;;;;;4.35;3.58;;;;;;;29.56;70.67;99329.78;4834517;29;20196;-86
2023/09/17 14:07:16;;;;;;;2.95;2.75;;;;;;;29.65;71.45;99330.41;4846657;29;20312;-86
2023/09/17 14:09:46;;;;;;;3.00;2.80;;;;;;;29.60;71.18;99339.75;4831055;29;20198;-86
2023/09/17 14:12:13;;;;;;;2.95;2.75;;;;;;;29.58;68.97;99346.78;4849138;29;20315;-86
2023/09/17 14:14:40;;;;;;;3.75;3.05;;;;;;;29.64;69.42;99348.13;4818273;29;20217;-85
2023/09/17 14:17:09;;;;;;;4.03;3.72;;;;;;;29.64;68.80;99343.41;4837533;29;20206;-86
2023/09/17 14:19:37;;;;;;;2.97;2.67;;;;;;;29.71;67.92;99340.03;4848753;29;20205;-85
2023/09/17 14:22:06;;;;;;;2.85;2.65;;;;;;;29.74;69.38;99320.81;4847795;29;20217;-85
2023/09/17 14:24:37;;;;;;;2.70;2.50;;;;;;;29.72;69.89;99330.63;4833580;29;20205;-86